Airfield :
LOGIN :

Register | Disclaimer

   EN    FR    IT 

 










Legend :    VFR   Marginal VFR   IFR   Intensive IFR   Very Intensive IFR
Visi :
Ceiling :
>= 8 km
>= 3000ft
5 to 8 km
1000 to 3000 ft
1500m to 5 km
500 to 1000 ft
800 to 1500m
200 to 500 ft
< 800m
< 200 ft
Symbols :   Thunderstorms  Fog  Heavy snow  Heavy precipitations  Wind > 20 kt
SIGMETs :     Misc.  Thunderstorms  Icing  Turbulence  Mountain Waves  Volcanic Ashes






- Airport Elevation : 84 ft


LFBC - Cazaux

CURRENT METAR :
  • 200030Z AUTO VRB02KT 8000 -RA FEW004/// SCT072/// OVC088/// ///CB 14/13 Q1002

EXPIRED METARs :
  • 200000Z AUTO VRB02KT 5000 -RA BR FEW022/// BKN056/// BKN066/// ///TCU 14/13 Q1002
  • 192330Z AUTO 03006KT 7000 -RA FEW020/// SCT043/// OVC056/// ///TCU 14/14 Q1003
  • 192300Z AUTO 03003KT 360V060 9999 FEW020/// BKN062/// OVC086/// ///TCU 14/13 Q1002
  • 192230Z AUTO 03003KT 9999 -RA FEW047 SCT072 OVC084 14/13 Q1003
  • 192200Z AUTO 05006KT 020V080 9999 -RA FEW030/// BKN044/// BKN070/// ///TCU 14/14 Q1002

Expired Forecast.



MET'MAP, your aeronautical weather chart ! - Copyright ORBIFLY December 2007 - Disclaimer

ORBIFLY MET'MAP TEAM :

Programming & Development : Alexandra Zaïnal
Concept & Development : Baudouin d'Aumeries
Co-Development & Prog : Marc-Olivier Méhu
Technical & hardware support : Manuel Goepfert

Contact : metmap@orbifly.com




SOURCES & CREDITS :

   NOAA